Etusivu
METAR-TAF:

METAR-TAF

Lentoasemat :

Sotilaslentoasema

Shizuhama, Japani

Leveyspiiri: 34-49N, Pituuspiiri: 138-18E, korkeus merenpinnasta: 7 m

Tämänhetkinen sää

Tämä raportti tehtiin 6 tuntia ja 15 minuuttia sitten, kello 08.42 UTC
Tuuli 8 kn idästä
Lämpötila 21°C
Kosteus 83%
Ilmanpaine 1001 hPa
Näkyvyys 10 km tai enemmän
Muutamia pilviä 2500 ft:n korkeudessa

METAR: RJNY 250842Z 09008KT 9999 FEW025 21/18 Q1001 RMK 1CU025 A2956

Aika: 23:57 (14:57 UTC)


TAF: puuttuu

Säähavainnot ja -ennusteet yli 4000 lentoasemalta (METAR- ja TAF-raportit).

Käytössä olevat sääasemat on merkitty karttaan keltaisilla ja punaisilla pisteillä.

Aseta hiiri pisteen päälle nähdäksesi sääaseman nimen.

Klikkaa sitten nähdäksesi säähavainnot ja -ennusteet.

Kartan vaihtaminen: klikkaa mustalla rastilla varustettuja vihreitä pisteitä, niin voit zoomata sisään; viivalla varustettua vihreää pistettä, niin voit zoomata ulos tai vihreitä nuolia, niin pääset viereisille kartoille.


METAR-TAF: